| time (UTC) | temp C | wind direction | speed KPH | gust KPH | rain 1hr cm | rain 24hr cm | rain mn cm | humidity % | barometer mb |
| 20260506175817 | 30 | 204 | 4.8 | 6.4 | 0.00 | 0.00 | 0.00 | 50 | 1017.6 |
| 20260506175314 | 31 | 355 | 4.8 | 9.7 | 0.00 | 0.00 | 0.00 | 47 | 1017.3 |
| 20260506174806 | 30 | 293 | 1.6 | 6.4 | 0.00 | 0.00 | 0.00 | 49 | 1017.6 |
| 20260506174303 | 30 | 333 | 3.2 | 4.8 | 0.00 | 0.00 | 0.00 | 50 | 1017.6 |
| 20260506173801 | 30 | 265 | 3.2 | 6.4 | 0.00 | 0.00 | 0.00 | 50 | 1017.6 |
| 20260506173257 | 30 | 196 | 3.2 | 9.7 | 0.00 | 0.00 | 0.00 | 51 | 1017.6 |
| 20260506172755 | 30 | 298 | 9.7 | 11.3 | 0.00 | 0.00 | 0.00 | 52 | 1018.0 |
| 20260506172251 | 29 | 124 | 6.4 | 11.3 | 0.00 | 0.00 | 0.00 | 53 | 1018.0 |
| 20260506171749 | 30 | 321 | 4.8 | 9.7 | 0.00 | 0.00 | 0.00 | 49 | 1018.0 |
| 20260506171246 | 30 | 47 | 3.2 | 4.8 | 0.00 | 0.00 | 0.00 | 51 | 1018.0 |
| 20260506170743 | 30 | 265 | 4.8 | 9.7 | 0.00 | 0.00 | 0.00 | 51 | 1018.0 |
| 20260506170239 | 30 | 254 | 4.8 | 9.7 | 0.00 | 0.00 | 0.00 | 52 | 1018.0 |
| 20260506165738 | 30 | 297 | 3.2 | 4.8 | 0.00 | 0.00 | 0.00 | 53 | 1018.0 |
| 20260506165235 | 30 | 183 | 4.8 | 6.4 | 0.00 | 0.00 | 0.00 | 53 | 1018.3 |
| 20260506164732 | 30 | 6 | 3.2 | 3.2 | 0.00 | 0.00 | 0.00 | 53 | 1018.0 |
| 20260506164229 | 30 | 6 | 3.2 | 4.8 | 0.00 | 0.00 | 0.00 | 55 | 1018.0 |
| 20260506163725 | 29 | 62 | 1.6 | 3.2 | 0.00 | 0.00 | 0.00 | 54 | 1018.3 |
| 20260506163221 | 29 | 180 | 1.6 | 3.2 | 0.00 | 0.00 | 0.00 | 55 | 1018.3 |
| 20260506162717 | 29 | 36 | 1.6 | 4.8 | 0.00 | 0.00 | 0.00 | 56 | 1018.3 |
| 20260506162214 | 29 | 72 | 1.6 | 3.2 | 0.00 | 0.00 | 0.00 | 56 | 1018.3 |
| 20260506161711 | 28 | 351 | 3.2 | 4.8 | 0.00 | 0.00 | 0.00 | 56 | 1018.3 |
| 20260506161208 | 28 | 112 | 3.2 | 6.4 | 0.00 | 0.00 | 0.00 | 57 | 1018.3 |
| 20260506160706 | 28 | 111 | 4.8 | 6.4 | 0.00 | 0.00 | 0.00 | 57 | 1018.3 |
| 20260506160202 | 28 | 33 | 3.2 | 6.4 | 0.00 | 0.00 | 0.00 | 56 | 1018.3 |
| 20260506155701 | 28 | 174 | 4.8 | 6.4 | 0.00 | 0.00 | 0.00 | 57 | 1018.3 |
| 20260506155158 | 29 | 146 | 1.6 | 4.8 | 0.00 | 0.00 | 0.00 | 56 | 1018.3 |
| 20260506153305 | 27 | 339 | 3.2 | 9.7 | 0.00 | 0.00 | 0.00 | 60 | 1018.0 |
| 20260506152802 | 27 | 306 | 3.2 | 6.4 | 0.00 | 0.00 | 0.00 | 59 | 1018.0 |
| 20260506152259 | 28 | 151 | 4.8 | 6.4 | 0.00 | 0.00 | 0.00 | 59 | 1018.3 |
| 20260506151758 | 27 | 179 | 1.6 | 4.8 | 0.00 | 0.00 | 0.00 | 59 | 1018.0 |
| 20260506151254 | 27 | 198 | 1.6 | 3.2 | 0.00 | 0.00 | 0.00 | 60 | 1018.0 |
| 20260506150751 | 27 | 200 | 1.6 | 6.4 | 0.00 | 0.00 | 0.00 | 62 | 1018.0 |
| 20260506150248 | 27 | 102 | 1.6 | 4.8 | 0.00 | 0.00 | 0.00 | 63 | 1018.3 |
| 20260506145745 | 27 | 357 | 1.6 | 4.8 | 0.00 | 0.00 | 0.00 | 64 | 1018.0 |
| 20260506145241 | 27 | 349 | 3.2 | 9.7 | 0.00 | 0.00 | 0.00 | 63 | 1018.0 |
| 20260506144739 | 26 | 61 | 4.8 | 6.4 | 0.00 | 0.00 | 0.00 | 65 | 1018.0 |
| 20260506144236 | 26 | 313 | 4.8 | 4.8 | 0.00 | 0.00 | 0.00 | 65 | 1017.6 |
| 20260506143733 | 26 | 104 | 1.6 | 3.2 | 0.00 | 0.00 | 0.00 | 67 | 1017.6 |
| 20260506143231 | 26 | 73 | 1.6 | 1.6 | 0.00 | 0.00 | 0.00 | 69 | 1017.6 |
| 20260506142729 | 26 | 104 | 3.2 | 6.4 | 0.00 | 0.00 | 0.00 | 71 | 1017.6 |
| 20260506142227 | 26 | 154 | 4.8 | 4.8 | 0.00 | 0.00 | 0.00 | 70 | 1017.6 |
| 20260506141725 | 25 | 28 | 1.6 | 3.2 | 0.00 | 0.00 | 0.00 | 72 | 1017.6 |
| 20260506141223 | 25 | 117 | 3.2 | 4.8 | 0.00 | 0.00 | 0.00 | 73 | 1017.6 |
| 20260506140720 | 25 | 0 | 1.6 | 1.6 | 0.00 | 0.00 | 0.00 | 75 | 1017.6 |
| 20260506140217 | 25 | 136 | 4.8 | 6.4 | 0.00 | 0.00 | 0.00 | 74 | 1017.6 |
| 20260506135714 | 25 | 256 | 3.2 | 4.8 | 0.00 | 0.00 | 0.00 | 76 | 1017.6 |
| 20260506135210 | 25 | 95 | 3.2 | 3.2 | 0.00 | 0.00 | 0.00 | 76 | 1017.3 |
| 20260506134707 | 24 | 336 | 0.0 | 3.2 | 0.00 | 0.00 | 0.00 | 78 | 1017.3 |
| 20260506134203 | 23 | 20 | 1.6 | 1.6 | 0.00 | 0.00 | 0.00 | 79 | 1017.3 |
| 20260506133700 | 23 | 111 | 1.6 | 3.2 | 0.00 | 0.00 | 0.00 | 79 | 1017.3 |
| 20260506133157 | 23 | 136 | 4.8 | 6.4 | 0.00 | 0.00 | 0.00 | 80 | 1017.3 |
| 20260506132654 | 23 | 338 | 1.6 | 3.2 | 0.00 | 0.00 | 0.00 | 82 | 1017.6 |
| 20260506132151 | 23 | 108 | 3.2 | 3.2 | 0.00 | 0.00 | 0.00 | 81 | 1017.6 |
| 20260506131649 | 23 | 63 | 1.6 | 1.6 | 0.00 | 0.00 | 0.00 | 82 | 1017.3 |
| 20260506131145 | 22 | 87 | 1.6 | 4.8 | 0.00 | 0.00 | 0.00 | 85 | 1016.9 |
| 20260506130642 | 22 | 85 | 1.6 | 3.2 | 0.00 | 0.00 | 0.00 | 85 | 1016.9 |
| 20260506130139 | 22 | 325 | 1.6 | 3.2 | 0.00 | 0.00 | 0.00 | 86 | 1017.3 |
| 20260506125637 | 22 | 64 | 0.0 | 1.6 | 0.00 | 0.00 | 0.00 | 85 | 1017.3 |
| 20260506125134 | 21 | 139 | 3.2 | 4.8 | 0.00 | 0.00 | 0.00 | 87 | 1017.3 |
| 20260506124632 | 21 | 59 | 0.0 | 1.6 | 0.00 | 0.00 | 0.00 | 89 | 1017.3 |
| 20260506124130 | 21 | 86 | 1.6 | 1.6 | 0.00 | 0.00 | 0.00 | 89 | 1017.3 |
| 20260506123627 | 20 | 54 | 0.0 | 0.0 | 0.00 | 0.00 | 0.00 | 92 | 1017.3 |
| 20260506123126 | 20 | 74 | 1.6 | 3.2 | 0.00 | 0.00 | 0.00 | 94 | 1017.3 |
| 20260506122622 | 20 | 62 | 0.0 | 3.2 | 0.00 | 0.00 | 0.00 | 95 | 1016.9 |
| 20260506122120 | 19 | 72 | 0.0 | 1.6 | 0.00 | 0.00 | 0.00 | 96 | 1016.9 |
| 20260506121618 | 19 | 72 | 0.0 | 1.6 | 0.00 | 0.00 | 0.00 | 97 | 1016.9 |
| 20260506121114 | 18 | 77 | 1.6 | 1.6 | 0.00 | 0.00 | 0.00 | 98 | 1016.9 |
| 20260506120612 | 18 | 64 | 0.0 | 0.0 | 0.00 | 0.00 | 0.00 | 99 | 1016.9 |
| 20260506120109 | 18 | 60 | 0.0 | 0.0 | 0.00 | 0.00 | 0.00 | 99 | 1016.6 |
| 20260506115607 | 18 | 56 | 0.0 | 0.0 | 0.00 | 0.00 | 0.00 | 99 | 1016.6 |
| 20260506115105 | 18 | 55 | 0.0 | 0.0 | 0.00 | 0.00 | 0.00 | 99 | 1016.6 |
| 20260506114602 | 17 | 55 | 0.0 | 0.0 | 0.00 | 0.00 | 0.00 | 99 | 1016.6 |
| 20260506114100 | 17 | 67 | 0.0 | 0.0 | 0.00 | 0.00 | 0.00 | 99 | 1016.6 |
| 20260506113558 | 17 | 54 | 0.0 | 0.0 | 0.00 | 0.00 | 0.00 | 99 | 1016.6 |
| 20260506113055 | 17 | 59 | 0.0 | 0.0 | 0.00 | 0.00 | 0.00 | 99 | 1016.3 |
| 20260506112551 | 17 | 67 | 0.0 | 0.0 | 0.00 | 0.00 | 0.00 | 99 | 1016.3 |
| 20260506112049 | 17 | 67 | 0.0 | 0.0 | 0.00 | 0.00 | 0.00 | 99 | 1016.3 |
| 20260506111547 | 17 | 67 | 0.0 | 0.0 | 0.00 | 0.00 | 0.00 | 99 | 1016.3 |
| 20260506111044 | 16 | 67 | 0.0 | 0.0 | 0.00 | 0.00 | 0.00 | 99 | 1016.3 |
| 20260506110541 | 16 | 68 | 0.0 | 0.0 | 0.00 | 0.00 | 0.00 | 99 | 1015.9 |
| 20260506110038 | 17 | 68 | 0.0 | 0.0 | 0.00 | 0.00 | 0.00 | 99 | 1015.9 |
| 20260506105534 | 17 | 68 | 0.0 | 0.0 | 0.00 | 0.00 | 0.00 | 99 | 1015.9 |
| 20260506105032 | 17 | 68 | 0.0 | 0.0 | 0.00 | 0.00 | 0.00 | 99 | 1015.9 |
| 20260506104530 | 17 | 68 | 0.0 | 0.0 | 0.00 | 0.00 | 0.00 | 99 | 1015.9 |
| 20260506104027 | 17 | 68 | 0.0 | 0.0 | 0.00 | 0.00 | 0.00 | 99 | 1015.9 |
| 20260506103524 | 17 | 67 | 0.0 | 0.0 | 0.00 | 0.00 | 0.00 | 99 | 1015.6 |
| 20260506103022 | 17 | 67 | 0.0 | 0.0 | 0.00 | 0.00 | 0.00 | 99 | 1015.6 |
| 20260506102520 | 17 | 67 | 0.0 | 0.0 | 0.00 | 0.00 | 0.00 | 99 | 1015.6 |
| 20260506102017 | 17 | 68 | 0.0 | 0.0 | 0.00 | 0.00 | 0.00 | 99 | 1015.9 |
| 20260506101514 | 17 | 66 | 0.0 | 0.0 | 0.00 | 0.00 | 0.00 | 99 | 1015.9 |
| 20260506101011 | 17 | 66 | 0.0 | 1.6 | 0.00 | 0.00 | 0.00 | 99 | 1015.9 |
| 20260506100509 | 17 | 56 | 0.0 | 0.0 | 0.00 | 0.00 | 0.00 | 99 | 1015.9 |
| 20260506100008 | 17 | 60 | 0.0 | 0.0 | 0.00 | 0.00 | 0.00 | 99 | 1015.9 |
| 20260506095505 | 17 | 65 | 0.0 | 0.0 | 0.00 | 0.00 | 0.00 | 99 | 1016.3 |
| 20260506095000 | 17 | 62 | 0.0 | 1.6 | 0.00 | 0.00 | 0.00 | 99 | 1016.3 |
| 20260506094459 | 17 | 66 | 0.0 | 1.6 | 0.00 | 0.00 | 0.00 | 99 | 1016.3 |
| 20260506093957 | 17 | 84 | 0.0 | 0.0 | 0.00 | 0.00 | 0.00 | 99 | 1016.3 |
| 20260506093455 | 17 | 59 | 0.0 | 0.0 | 0.00 | 0.00 | 0.00 | 99 | 1016.3 |
| 20260506092952 | 17 | 66 | 0.0 | 0.0 | 0.00 | 0.00 | 0.00 | 99 | 1016.3 |
| 20260506092450 | 17 | 79 | 1.6 | 1.6 | 0.00 | 0.00 | 0.00 | 99 | 1016.3 |
| 20260506091946 | 17 | 68 | 0.0 | 0.0 | 0.00 | 0.00 | 0.00 | 99 | 1015.9 |
| 20260506091445 | 17 | 73 | 1.6 | 1.6 | 0.00 | 0.00 | 0.00 | 99 | 1015.9 |
| 20260506090942 | 17 | 48 | 0.0 | 0.0 | 0.00 | 0.00 | 0.00 | 99 | 1015.9 |
| 20260506090439 | 17 | 79 | 1.6 | 3.2 | 0.00 | 0.00 | 0.00 | 99 | 1015.9 |
| 20260506085936 | 17 | 56 | 0.0 | 0.0 | 0.00 | 0.00 | 0.00 | 99 | 1015.9 |
| 20260506085432 | 17 | 82 | 1.6 | 3.2 | 0.00 | 0.00 | 0.00 | 99 | 1015.9 |
| 20260506084928 | 17 | 71 | 1.6 | 1.6 | 0.00 | 0.00 | 0.00 | 98 | 1015.9 |
| 20260506084425 | 17 | 48 | 0.0 | 3.2 | 0.00 | 0.00 | 0.00 | 98 | 1015.9 |
| 20260506083921 | 17 | 77 | 1.6 | 1.6 | 0.00 | 0.00 | 0.00 | 98 | 1015.9 |
| 20260506083419 | 17 | 88 | 1.6 | 1.6 | 0.00 | 0.00 | 0.00 | 98 | 1015.9 |
| 20260506082916 | 17 | 79 | 1.6 | 3.2 | 0.00 | 0.00 | 0.00 | 98 | 1015.9 |
| 20260506082413 | 17 | 83 | 1.6 | 1.6 | 0.00 | 0.00 | 0.00 | 98 | 1015.9 |
| 20260506081908 | 17 | 94 | 1.6 | 3.2 | 0.00 | 0.00 | 0.00 | 97 | 1016.3 |
| 20260506081407 | 17 | 70 | 0.0 | 1.6 | 0.00 | 0.00 | 0.00 | 97 | 1016.3 |
| 20260506080904 | 17 | 85 | 1.6 | 3.2 | 0.00 | 0.00 | 0.00 | 97 | 1016.3 |
| 20260506080401 | 17 | 48 | 0.0 | 0.0 | 0.00 | 0.00 | 0.00 | 97 | 1016.3 |
| 20260506073345 | 17 | 76 | 1.6 | 3.2 | 0.00 | 0.00 | 0.00 | 96 | 1016.3 |
| 20260506072841 | 17 | 82 | 0.0 | 0.0 | 0.00 | 0.00 | 0.00 | 95 | 1016.3 |
| 20260506072339 | 17 | 92 | 0.0 | 3.2 | 0.00 | 0.00 | 0.00 | 95 | 1016.3 |
| 20260506071837 | 17 | 142 | 3.2 | 3.2 | 0.00 | 0.00 | 0.00 | 95 | 1016.3 |
| 20260506071335 | 17 | 144 | 3.2 | 3.2 | 0.00 | 0.00 | 0.00 | 95 | 1016.3 |
| 20260506070831 | 17 | 143 | 3.2 | 3.2 | 0.00 | 0.00 | 0.00 | 95 | 1016.3 |
| 20260506070328 | 17 | 53 | 0.0 | 0.0 | 0.00 | 0.00 | 0.00 | 95 | 1016.3 |
| 20260506062306 | 17 | 55 | 0.0 | 0.0 | 0.00 | 0.00 | 0.00 | 92 | 1016.3 |
| 20260506061801 | 17 | 70 | 0.0 | 0.0 | 0.00 | 0.00 | 0.00 | 92 | 1016.3 |
| 20260506061258 | 17 | 65 | 0.0 | 0.0 | 0.00 | 0.00 | 0.00 | 91 | 1016.3 |
| 20260506060757 | 17 | 60 | 0.0 | 0.0 | 0.00 | 0.00 | 0.00 | 91 | 1016.6 |
| 20260506060254 | 17 | 79 | 0.0 | 0.0 | 0.00 | 0.00 | 0.00 | 91 | 1016.3 |
| 20260506051226 | 17 | 65 | 0.0 | 0.0 | 0.00 | 0.00 | 0.00 | 88 | 1016.6 |
| 20260506050724 | 17 | 65 | 0.0 | 0.0 | 0.00 | 0.00 | 0.00 | 88 | 1016.6 |
| 20260506050221 | 17 | 65 | 0.0 | 0.0 | 0.00 | 0.00 | 0.00 | 87 | 1016.6 |
| 20260506044712 | 17 | 65 | 0.0 | 0.0 | 0.00 | 0.00 | 0.00 | 85 | 1016.9 |
| 20260506044210 | 18 | 65 | 0.0 | 0.0 | 0.00 | 0.00 | 0.00 | 85 | 1016.9 |
| 20260506043707 | 18 | 65 | 0.0 | 0.0 | 0.00 | 0.00 | 0.00 | 85 | 1016.9 |
| 20260506043205 | 18 | 65 | 0.0 | 0.0 | 0.00 | 0.00 | 0.00 | 85 | 1016.9 |
| 20260506042703 | 18 | 65 | 0.0 | 0.0 | 0.00 | 0.00 | 0.00 | 84 | 1017.3 |
| 20260506042201 | 18 | 65 | 0.0 | 0.0 | 0.00 | 0.00 | 0.00 | 84 | 1017.3 |
| 20260506041659 | 18 | 65 | 0.0 | 0.0 | 0.00 | 0.00 | 0.00 | 84 | 1016.9 |
| 20260506041156 | 18 | 65 | 0.0 | 0.0 | 0.00 | 0.00 | 0.00 | 84 | 1016.9 |
| 20260506040653 | 18 | 65 | 0.0 | 0.0 | 0.00 | 0.00 | 0.00 | 84 | 1016.9 |
| 20260506040150 | 18 | 65 | 0.0 | 0.0 | 0.00 | 0.00 | 0.00 | 83 | 1016.9 |
| 20260506035647 | 18 | 65 | 0.0 | 0.0 | 0.00 | 0.00 | 0.00 | 83 | 1016.9 |
| 20260506035143 | 18 | 65 | 0.0 | 0.0 | 0.00 | 0.00 | 0.00 | 83 | 1016.9 |
| 20260506034640 | 18 | 65 | 0.0 | 0.0 | 0.00 | 0.00 | 0.00 | 83 | 1016.9 |
| 20260506034138 | 18 | 65 | 0.0 | 0.0 | 0.00 | 0.00 | 0.00 | 81 | 1016.9 |
| 20260506033635 | 18 | 64 | 0.0 | 0.0 | 0.00 | 0.00 | 0.00 | 81 | 1016.9 |
| 20260506033132 | 18 | 64 | 0.0 | 0.0 | 0.00 | 0.00 | 0.00 | 81 | 1016.9 |
| 20260506032629 | 18 | 64 | 0.0 | 0.0 | 0.00 | 0.00 | 0.00 | 81 | 1016.9 |
| 20260506032126 | 18 | 63 | 0.0 | 0.0 | 0.00 | 0.00 | 0.00 | 80 | 1016.9 |
| 20260506031623 | 18 | 63 | 0.0 | 0.0 | 0.00 | 0.00 | 0.00 | 80 | 1016.9 |
| 20260506031120 | 19 | 63 | 0.0 | 0.0 | 0.00 | 0.00 | 0.00 | 80 | 1016.9 |
| 20260506030618 | 19 | 63 | 0.0 | 0.0 | 0.00 | 0.00 | 0.00 | 79 | 1016.9 |
| 20260506030115 | 19 | 63 | 0.0 | 0.0 | 0.00 | 0.00 | 0.00 | 79 | 1016.9 |
| 20260506025612 | 19 | 62 | 0.0 | 0.0 | 0.00 | 0.00 | 0.00 | 77 | 1016.9 |
| 20260506025108 | 20 | 62 | 0.0 | 0.0 | 0.00 | 0.00 | 0.00 | 78 | 1016.9 |
| 20260506024606 | 20 | 62 | 0.0 | 0.0 | 0.00 | 0.00 | 0.00 | 77 | 1016.9 |
| 20260506024101 | 20 | 62 | 0.0 | 0.0 | 0.00 | 0.00 | 0.00 | 77 | 1016.9 |
| 20260506023557 | 20 | 62 | 0.0 | 0.0 | 0.00 | 0.00 | 0.00 | 76 | 1016.9 |
| 20260506023055 | 20 | 62 | 0.0 | 0.0 | 0.00 | 0.00 | 0.00 | 75 | 1016.9 |
| 20260506022553 | 20 | 61 | 0.0 | 0.0 | 0.00 | 0.00 | 0.00 | 73 | 1016.9 |
| 20260506022050 | 20 | 61 | 0.0 | 0.0 | 0.00 | 0.00 | 0.00 | 73 | 1016.6 |
| 20260506021547 | 20 | 61 | 0.0 | 0.0 | 0.00 | 0.00 | 0.00 | 73 | 1016.6 |
| 20260506021044 | 20 | 60 | 0.0 | 0.0 | 0.00 | 0.00 | 0.00 | 72 | 1016.3 |
| 20260506020542 | 20 | 60 | 0.0 | 0.0 | 0.00 | 0.00 | 0.00 | 73 | 1016.3 |
| 20260506020039 | 20 | 61 | 0.0 | 0.0 | 0.00 | 0.00 | 0.00 | 74 | 1016.3 |
| 20260506015537 | 20 | 59 | 0.0 | 0.0 | 0.00 | 0.00 | 0.00 | 73 | 1016.3 |
| 20260506015033 | 20 | 58 | 0.0 | 0.0 | 0.00 | 0.00 | 0.00 | 72 | 1016.3 |
| 20260506014531 | 20 | 58 | 0.0 | 0.0 | 0.00 | 0.00 | 0.00 | 72 | 1016.3 |
| 20260506014026 | 21 | 59 | 0.0 | 0.0 | 0.00 | 0.00 | 0.00 | 72 | 1016.3 |
| 20260506013525 | 21 | 59 | 0.0 | 0.0 | 0.00 | 0.00 | 0.00 | 71 | 1016.3 |
| 20260506013021 | 21 | 60 | 0.0 | 0.0 | 0.00 | 0.00 | 0.00 | 70 | 1016.3 |
| 20260506012517 | 21 | 60 | 0.0 | 0.0 | 0.00 | 0.00 | 0.00 | 69 | 1016.3 |
| 20260506012014 | 21 | 60 | 0.0 | 0.0 | 0.00 | 0.00 | 0.00 | 71 | 1016.3 |
| 20260506011512 | 21 | 62 | 0.0 | 0.0 | 0.00 | 0.00 | 0.00 | 69 | 1016.3 |
| 20260506011008 | 21 | 62 | 0.0 | 0.0 | 0.00 | 0.00 | 0.00 | 68 | 1016.3 |
| 20260506010507 | 22 | 61 | 0.0 | 0.0 | 0.00 | 0.00 | 0.00 | 69 | 1016.3 |
| 20260506010003 | 22 | 61 | 0.0 | 0.0 | 0.00 | 0.00 | 0.00 | 68 | 1015.9 |
| 20260506005500 | 22 | 62 | 0.0 | 0.0 | 0.00 | 0.00 | 0.00 | 67 | 1016.3 |
| 20260506004956 | 22 | 57 | 0.0 | 0.0 | 0.00 | 0.00 | 0.00 | 64 | 1015.9 |
| 20260506004454 | 22 | 57 | 0.0 | 0.0 | 0.00 | 0.00 | 0.00 | 65 | 1015.9 |
| 20260506003950 | 22 | 57 | 0.0 | 0.0 | 0.00 | 0.00 | 0.00 | 65 | 1015.6 |
| 20260506003446 | 23 | 54 | 0.0 | 0.0 | 0.00 | 0.00 | 0.00 | 65 | 1015.6 |
| 20260506002943 | 23 | 54 | 0.0 | 0.0 | 0.00 | 0.00 | 0.00 | 63 | 1015.2 |
| 20260506002439 | 23 | 64 | 0.0 | 0.0 | 0.00 | 0.00 | 0.00 | 62 | 1015.6 |
| 20260506001934 | 23 | 54 | 0.0 | 0.0 | 0.00 | 0.00 | 0.00 | 60 | 1015.2 |
| 20260506001432 | 24 | 56 | 0.0 | 0.0 | 0.00 | 0.00 | 0.00 | 59 | 1015.6 |
| 20260506000929 | 25 | 54 | 0.0 | 0.0 | 0.00 | 0.00 | 0.00 | 56 | 1015.6 |
| 20260506000426 | 25 | 56 | 0.0 | 0.0 | 0.00 | 0.00 | 0.00 | 57 | 1015.2 |
| 20260505235923 | 25 | 63 | 0.0 | 0.0 | 0.00 | 0.00 | 0.00 | 53 | 1015.6 |
| 20260505235421 | 26 | 53 | 0.0 | 0.0 | 0.00 | 0.00 | 0.00 | 51 | 1015.6 |
| 20260505234918 | 26 | 72 | 0.0 | 1.6 | 0.00 | 0.00 | 0.00 | 50 | 1015.2 |
| 20260505234415 | 26 | 66 | 1.6 | 1.6 | 0.00 | 0.00 | 0.00 | 49 | 1015.2 |
| 20260505233912 | 26 | 54 | 0.0 | 1.6 | 0.00 | 0.00 | 0.00 | 50 | 1015.2 |
| 20260505233410 | 26 | 55 | 0.0 | 0.0 | 0.00 | 0.00 | 0.00 | 49 | 1015.2 |
| 20260505232907 | 26 | 66 | 1.6 | 1.6 | 0.00 | 0.00 | 0.00 | 47 | 1015.2 |
| 20260505232405 | 26 | 81 | 0.0 | 1.6 | 0.00 | 0.00 | 0.00 | 47 | 1014.9 |
| 20260505231901 | 27 | 75 | 1.6 | 1.6 | 0.00 | 0.00 | 0.00 | 47 | 1014.9 |
| 20260505231358 | 27 | 92 | 0.0 | 1.6 | 0.00 | 0.00 | 0.00 | 46 | 1014.9 |
| 20260505230857 | 27 | 54 | 0.0 | 3.2 | 0.00 | 0.00 | 0.00 | 46 | 1014.9 |
| 20260505230354 | 27 | 359 | 0.0 | 1.6 | 0.00 | 0.00 | 0.00 | 45 | 1015.2 |
| 20260505225850 | 27 | 40 | 1.6 | 3.2 | 0.00 | 0.00 | 0.00 | 48 | 1015.2 |
| 20260505225348 | 27 | 347 | 1.6 | 4.8 | 0.00 | 0.00 | 0.00 | 42 | 1015.2 |
| 20260505224842 | 27 | 9 | 3.2 | 3.2 | 0.00 | 0.00 | 0.00 | 41 | 1015.2 |
| 20260505224341 | 27 | 25 | 3.2 | 3.2 | 0.00 | 0.00 | 0.00 | 45 | 1015.2 |
| 20260505223837 | 27 | 60 | 1.6 | 4.8 | 0.00 | 0.00 | 0.00 | 42 | 1015.2 |
| 20260505223334 | 28 | 34 | 0.0 | 1.6 | 0.00 | 0.00 | 0.00 | 45 | 1015.2 |
| 20260505222830 | 28 | 67 | 0.0 | 3.2 | 0.00 | 0.00 | 0.00 | 42 | 1014.9 |
| 20260505222326 | 28 | 60 | 1.6 | 3.2 | 0.00 | 0.00 | 0.00 | 41 | 1015.2 |
| 20260505221824 | 28 | 1 | 1.6 | 4.8 | 0.00 | 0.00 | 0.00 | 41 | 1015.2 |
| 20260505221320 | 28 | 23 | 1.6 | 4.8 | 0.00 | 0.00 | 0.00 | 40 | 1015.2 |
| 20260505220817 | 29 | 293 | 1.6 | 3.2 | 0.00 | 0.00 | 0.00 | 39 | 1015.2 |
| 20260505220314 | 29 | 276 | 1.6 | 3.2 | 0.00 | 0.00 | 0.00 | 39 | 1015.2 |
| 20260505215813 | 30 | 14 | 1.6 | 1.6 | 0.00 | 0.00 | 0.00 | 40 | 1015.2 |
| 20260505215310 | 29 | 9 | 1.6 | 3.2 | 0.00 | 0.00 | 0.00 | 39 | 1015.2 |
| 20260505214808 | 29 | 336 | 1.6 | 3.2 | 0.00 | 0.00 | 0.00 | 40 | 1015.2 |
| 20260505214305 | 29 | 64 | 1.6 | 3.2 | 0.00 | 0.00 | 0.00 | 42 | 1015.2 |
| 20260505213802 | 29 | 113 | 1.6 | 3.2 | 0.00 | 0.00 | 0.00 | 39 | 1015.2 |
| 20260505213300 | 30 | 163 | 6.4 | 6.4 | 0.00 | 0.00 | 0.00 | 39 | 1015.2 |
| 20260505212755 | 30 | 91 | 1.6 | 4.8 | 0.00 | 0.00 | 0.00 | 39 | 1015.2 |
| 20260505212253 | 30 | 344 | 1.6 | 6.4 | 0.00 | 0.00 | 0.00 | 39 | 1015.2 |
| 20260505211749 | 29 | 339 | 1.6 | 4.8 | 0.00 | 0.00 | 0.00 | 40 | 1014.9 |
| 20260505211247 | 29 | 56 | 1.6 | 3.2 | 0.00 | 0.00 | 0.00 | 39 | 1015.2 |
| 20260505210743 | 29 | 64 | 1.6 | 4.8 | 0.00 | 0.00 | 0.00 | 40 | 1014.9 |
| 20260505210240 | 30 | 94 | 0.0 | 4.8 | 0.00 | 0.00 | 0.00 | 38 | 1015.2 |
| 20260505205737 | 30 | 26 | 1.6 | 4.8 | 0.00 | 0.00 | 0.00 | 39 | 1015.2 |
| 20260505205236 | 30 | 256 | 3.2 | 11.3 | 0.00 | 0.00 | 0.00 | 39 | 1015.2 |
| 20260505204731 | 29 | 349 | 1.6 | 4.8 | 0.00 | 0.00 | 0.00 | 38 | 1015.2 |
| 20260505204230 | 30 | 350 | 3.2 | 6.4 | 0.00 | 0.00 | 0.00 | 38 | 1015.2 |
| 20260505203726 | 30 | 187 | 3.2 | 4.8 | 0.00 | 0.00 | 0.00 | 38 | 1015.2 |
| 20260505203223 | 30 | 255 | 4.8 | 6.4 | 0.00 | 0.00 | 0.00 | 38 | 1015.2 |
| 20260505202719 | 30 | 25 | 3.2 | 3.2 | 0.00 | 0.00 | 0.00 | 39 | 1015.6 |
| 20260505202215 | 30 | 237 | 4.8 | 4.8 | 0.00 | 0.00 | 0.00 | 38 | 1015.6 |
| 20260505201712 | 30 | 78 | 3.2 | 3.2 | 0.00 | 0.00 | 0.00 | 38 | 1015.6 |
| 20260505201210 | 30 | 262 | 3.2 | 9.7 | 0.00 | 0.00 | 0.00 | 39 | 1015.6 |
| 20260505200708 | 30 | 27 | 1.6 | 3.2 | 0.00 | 0.00 | 0.00 | 38 | 1015.6 |
| 20260505200204 | 30 | 177 | 1.6 | 4.8 | 0.00 | 0.00 | 0.00 | 39 | 1015.9 |
| 20260505195700 | 30 | 166 | 3.2 | 4.8 | 0.00 | 0.00 | 0.00 | 40 | 1015.9 |
| 20260505195158 | 29 | 20 | 1.6 | 6.4 | 0.00 | 0.00 | 0.00 | 42 | 1016.3 |
| 20260505194655 | 30 | 320 | 3.2 | 6.4 | 0.00 | 0.00 | 0.00 | 39 | 1015.9 |
| 20260505194151 | 30 | 32 | 0.0 | 4.8 | 0.00 | 0.00 | 0.00 | 41 | 1016.3 |
| 20260505193647 | 28 | 142 | 3.2 | 6.4 | 0.00 | 0.00 | 0.00 | 41 | 1016.3 |
| 20260505193144 | 29 | 295 | 4.8 | 6.4 | 0.00 | 0.00 | 0.00 | 42 | 1016.3 |
| 20260505192643 | 30 | 122 | 4.8 | 4.8 | 0.00 | 0.00 | 0.00 | 38 | 1016.3 |
| 20260505192140 | 30 | 350 | 3.2 | 3.2 | 0.00 | 0.00 | 0.00 | 40 | 1016.3 |
| 20260505191639 | 28 | 147 | 3.2 | 4.8 | 0.00 | 0.00 | 0.00 | 44 | 1016.6 |
| 20260505191137 | 28 | 184 | 1.6 | 3.2 | 0.00 | 0.00 | 0.00 | 41 | 1016.6 |
| 20260505190632 | 28 | 351 | 4.8 | 6.4 | 0.00 | 0.00 | 0.00 | 41 | 1016.6 |
| 20260505190127 | 29 | 269 | 6.4 | 9.7 | 0.00 | 0.00 | 0.00 | 44 | 1016.6 |
| 20260505185625 | 28 | 36 | 3.2 | 4.8 | 0.00 | 0.00 | 0.00 | 43 | 1016.6 |
| 20260505185121 | 30 | 273 | 6.4 | 6.4 | 0.00 | 0.00 | 0.00 | 43 | 1016.6 |
| 20260505184617 | 30 | 1 | 1.6 | 4.8 | 0.00 | 0.00 | 0.00 | 43 | 1016.6 |
| 20260505184114 | 28 | 118 | 1.6 | 4.8 | 0.00 | 0.00 | 0.00 | 43 | 1016.6 |
| 20260505183610 | 29 | 65 | 1.6 | 3.2 | 0.00 | 0.00 | 0.00 | 42 | 1016.6 |
| 20260505183109 | 29 | 18 | 1.6 | 4.8 | 0.00 | 0.00 | 0.00 | 43 | 1016.6 |
| 20260505182605 | 28 | 328 | 1.6 | 6.4 | 0.00 | 0.00 | 0.00 | 47 | 1016.9 |
| 20260505182102 | 28 | 34 | 1.6 | 3.2 | 0.00 | 0.00 | 0.00 | 46 | 1016.6 |
| 20260505181558 | 27 | 19 | 0.0 | 4.8 | 0.00 | 0.00 | 0.00 | 49 | 1016.6 |
| 20260505181055 | 27 | 23 | 0.0 | 6.4 | 0.00 | 0.00 | 0.00 | 50 | 1016.6 |
| 20260505180551 | 28 | 51 | 3.2 | 4.8 | 0.00 | 0.00 | 0.00 | 46 | 1016.6 |